createdAt,value
2018-05-02T00:01:46.640Z,12.70
2018-05-02T00:04:15.081Z,12.70
2018-05-02T00:06:42.642Z,12.70
2018-05-02T00:09:10.236Z,12.70
2018-05-02T00:11:37.823Z,12.70
2018-05-02T00:14:05.431Z,12.60
2018-05-02T00:16:32.980Z,12.60
2018-05-02T00:19:00.915Z,12.60
2018-05-02T00:21:28.474Z,12.50
2018-05-02T00:23:56.034Z,12.50
2018-05-02T00:26:23.952Z,12.50
2018-05-02T00:28:51.982Z,12.40
2018-05-02T00:31:19.528Z,12.40
2018-05-02T00:33:47.087Z,12.40
2018-05-02T00:36:14.754Z,12.40
2018-05-02T00:38:43.129Z,12.50
2018-05-02T00:41:11.893Z,12.50
2018-05-02T00:43:40.247Z,12.40
2018-05-02T00:46:07.846Z,12.40
2018-05-02T00:48:36.225Z,12.30
2018-05-02T00:51:04.552Z,12.20
2018-05-02T00:53:32.139Z,12.20
2018-05-02T00:56:00.498Z,12.30
2018-05-02T00:58:28.079Z,12.20
2018-05-02T01:00:55.829Z,12.20
2018-05-02T01:03:23.438Z,12.10
2018-05-02T01:05:51.295Z,12.10
2018-05-02T01:08:19.634Z,12.00
2018-05-02T01:10:47.297Z,12.00
2018-05-02T01:13:14.914Z,12.10
2018-05-02T01:15:42.531Z,12.00
2018-05-02T01:18:10.177Z,12.00
2018-05-02T01:20:37.790Z,12.00
2018-05-02T01:23:06.129Z,11.90
2018-05-02T01:25:33.710Z,11.80
2018-05-02T01:28:02.071Z,11.80
2018-05-02T01:30:29.629Z,11.80
2018-05-02T01:32:57.239Z,11.80
2018-05-02T01:35:24.798Z,11.90
2018-05-02T01:37:52.347Z,12.00
2018-05-02T01:40:20.026Z,12.00
2018-05-02T01:42:47.572Z,12.00
2018-05-02T01:45:15.990Z,12.10
2018-05-02T01:47:45.136Z,12.10
2018-05-02T01:50:13.067Z,12.10
2018-05-02T01:52:40.638Z,12.20
2018-05-02T01:55:08.246Z,12.30
2018-05-02T01:57:35.824Z,12.20
2018-05-02T02:00:03.457Z,12.20
2018-05-02T02:02:31.140Z,12.20
2018-05-02T02:04:58.745Z,12.30
2018-05-02T02:07:26.404Z,12.20
2018-05-02T02:09:54.032Z,12.20
2018-05-02T02:12:21.606Z,12.30
2018-05-02T02:14:49.174Z,12.30
2018-05-02T02:17:16.780Z,12.30
2018-05-02T02:19:45.124Z,12.30
2018-05-02T02:22:13.422Z,12.40
2018-05-02T02:24:41.805Z,12.40
2018-05-02T02:27:10.135Z,12.40
2018-05-02T02:29:37.681Z,12.30
2018-05-02T02:32:05.277Z,12.40
2018-05-02T02:34:32.867Z,12.40
2018-05-02T02:37:01.220Z,12.40
2018-05-02T02:39:29.562Z,12.40
2018-05-02T02:41:57.254Z,12.40
2018-05-02T02:44:24.851Z,12.30
2018-05-02T02:46:52.401Z,12.20
2018-05-02T02:49:20.048Z,12.20
2018-05-02T02:51:48.406Z,12.20
2018-05-02T02:54:16.001Z,12.20
2018-05-02T02:56:44.322Z,12.10
2018-05-02T02:59:12.211Z,12.10
2018-05-02T03:01:39.812Z,12.20
2018-05-02T03:04:07.348Z,12.20
2018-05-02T03:06:35.712Z,12.30
2018-05-02T03:09:03.345Z,12.30
2018-05-02T03:11:30.921Z,12.20
2018-05-02T03:13:58.533Z,12.20
2018-05-02T03:16:26.858Z,12.20
2018-05-02T03:18:54.432Z,12.20
2018-05-02T03:21:22.003Z,12.20
2018-05-02T03:23:50.362Z,12.10
2018-05-02T03:26:17.932Z,12.20
2018-05-02T03:28:45.558Z,12.20
2018-05-02T03:31:13.142Z,12.20
2018-05-02T03:33:40.768Z,12.20
2018-05-02T03:36:08.335Z,12.20
2018-05-02T03:38:35.951Z,12.10
2018-05-02T03:41:03.535Z,12.00
2018-05-02T03:43:31.917Z,11.80
2018-05-02T03:46:00.296Z,11.70
2018-05-02T03:48:28.660Z,11.70
2018-05-02T03:50:56.221Z,11.70
2018-05-02T03:53:24.551Z,11.80
2018-05-02T03:55:52.109Z,11.80
2018-05-02T03:58:19.687Z,11.80
2018-05-02T04:00:59.302Z,11.70
2018-05-02T04:03:38.928Z,11.80
2018-05-02T04:09:11.562Z,11.70
2018-05-02T04:11:39.207Z,11.70
2018-05-02T04:14:07.154Z,11.60
2018-05-02T04:16:34.745Z,11.70
2018-05-02T04:19:02.423Z,11.60
2018-05-02T04:21:30.077Z,11.70
2018-05-02T04:23:57.753Z,11.80
2018-05-02T04:26:25.341Z,11.90
2018-05-02T04:28:53.702Z,11.90
2018-05-02T04:31:22.113Z,11.60
2018-05-02T04:33:50.124Z,11.60
2018-05-02T04:36:17.687Z,11.70
2018-05-02T04:38:45.262Z,11.80
2018-05-02T04:41:12.862Z,11.90
2018-05-02T04:43:41.392Z,11.80
2018-05-02T04:46:09.090Z,12.20
2018-05-02T04:48:36.751Z,12.20
2018-05-02T04:51:05.191Z,12.30
2018-05-02T04:53:32.750Z,12.40
2018-05-02T04:56:00.462Z,12.40
2018-05-02T04:58:28.816Z,12.20
2018-05-02T05:00:56.514Z,12.20
2018-05-02T05:03:25.032Z,12.20
2018-05-02T05:05:52.722Z,12.20
2018-05-02T05:08:20.424Z,12.10
2018-05-02T05:10:49.163Z,12.20
2018-05-02T05:13:18.714Z,12.00
2018-05-02T05:15:46.304Z,12.10
2018-05-02T05:18:14.165Z,12.30
2018-05-02T05:20:41.905Z,12.30
2018-05-02T05:23:10.281Z,12.50
2018-05-02T05:25:37.912Z,12.50
2018-05-02T05:28:05.593Z,12.50
2018-05-02T05:30:33.990Z,12.40
2018-05-02T05:33:02.401Z,12.50
2018-05-02T05:35:30.003Z,12.50
2018-05-02T05:37:58.354Z,12.50
2018-05-02T05:40:25.922Z,12.50
2018-05-02T05:42:53.665Z,12.60
2018-05-02T05:45:21.347Z,12.70
2018-05-02T05:47:49.246Z,12.80
2018-05-02T05:50:19.380Z,12.70
2018-05-02T05:52:47.722Z,12.80
2018-05-02T05:55:15.719Z,12.80
2018-05-02T05:57:44.312Z,12.80
2018-05-02T06:00:12.122Z,12.80
2018-05-02T06:02:40.937Z,12.80
2018-05-02T06:05:08.690Z,13.00
2018-05-02T06:07:36.270Z,13.00
2018-05-02T06:10:03.866Z,13.00
2018-05-02T06:12:32.391Z,13.00
2018-05-02T06:14:59.955Z,13.00
2018-05-02T06:17:27.619Z,13.10
2018-05-02T06:19:55.640Z,13.30
2018-05-02T06:22:23.605Z,13.50
2018-05-02T06:24:52.015Z,13.80
2018-05-02T06:27:19.754Z,13.80
2018-05-02T06:29:47.358Z,14.00
2018-05-02T06:32:15.367Z,13.90
2018-05-02T06:34:44.134Z,14.00
2018-05-02T06:37:12.743Z,14.10
2018-05-02T06:39:42.627Z,14.10
2018-05-02T06:42:10.367Z,14.20
2018-05-02T06:44:38.049Z,13.90
2018-05-02T06:47:05.714Z,14.30
2018-05-02T06:49:33.627Z,14.80
2018-05-02T06:52:01.216Z,15.40
2018-05-02T06:54:28.873Z,15.40
2018-05-02T06:56:56.449Z,15.40
2018-05-02T06:59:24.234Z,15.60
2018-05-02T07:01:51.993Z,15.80
2018-05-02T07:04:19.660Z,15.70
2018-05-02T07:06:47.423Z,15.50
2018-05-02T07:09:16.614Z,15.40
2018-05-02T07:11:45.332Z,14.60
2018-05-02T07:14:12.913Z,14.60
2018-05-02T07:16:40.709Z,14.60
2018-05-02T07:19:08.409Z,14.50
2018-05-02T07:21:36.093Z,14.20
2018-05-02T07:24:04.797Z,14.50
2018-05-02T07:26:32.387Z,14.50
2018-05-02T07:28:59.923Z,14.80
2018-05-02T07:31:27.542Z,14.80
2018-05-02T07:33:55.303Z,15.00
2018-05-02T07:36:23.033Z,15.10
2018-05-02T07:38:50.635Z,15.20
2018-05-02T07:41:18.275Z,15.30
2018-05-02T07:43:45.941Z,15.20
2018-05-02T07:46:14.341Z,15.00
2018-05-02T07:48:42.020Z,14.90
2018-05-02T07:51:10.343Z,14.40
2018-05-02T07:53:38.243Z,14.40
2018-05-02T07:56:05.924Z,14.40
2018-05-02T07:58:34.270Z,14.30
2018-05-02T08:01:02.119Z,14.30
2018-05-02T08:03:30.140Z,14.20
2018-05-02T08:05:57.988Z,14.10
2018-05-02T08:08:25.562Z,14.00
2018-05-02T08:10:57.404Z,14.10
2018-05-02T08:13:25.078Z,14.00
2018-05-02T08:15:54.786Z,14.00
2018-05-02T08:18:22.347Z,14.00
2018-05-02T08:20:50.284Z,13.90
2018-05-02T08:23:17.947Z,13.90
2018-05-02T08:25:45.735Z,13.70
2018-05-02T08:28:13.492Z,13.70
2018-05-02T08:30:41.205Z,13.90
2018-05-02T08:33:09.573Z,13.90
2018-05-02T08:35:37.178Z,13.90
2018-05-02T08:38:05.072Z,13.90
2018-05-02T08:40:32.824Z,14.20
2018-05-02T08:43:00.585Z,14.30
2018-05-02T08:45:28.463Z,14.70
2018-05-02T08:47:56.132Z,14.90
2018-05-02T08:50:23.835Z,15.20
2018-05-02T08:52:52.306Z,15.90
2018-05-02T08:55:20.234Z,15.90
2018-05-02T08:57:47.827Z,16.30
2018-05-02T09:00:15.592Z,16.40
2018-05-02T09:02:43.304Z,16.70
2018-05-02T09:05:10.877Z,16.90
2018-05-02T09:07:38.580Z,16.80
2018-05-02T09:10:06.239Z,16.50
2018-05-02T09:12:33.935Z,16.40
2018-05-02T09:15:01.638Z,16.30
2018-05-02T09:17:29.217Z,16.10
2018-05-02T09:19:56.819Z,16.00
2018-05-02T09:22:25.510Z,16.40
2018-05-02T09:24:53.144Z,16.50
2018-05-02T09:27:20.744Z,16.80
2018-05-02T09:29:49.095Z,18.00
2018-05-02T09:32:16.793Z,18.00
2018-05-02T09:34:45.192Z,18.90
2018-05-02T09:37:13.586Z,19.40
2018-05-02T09:39:41.253Z,19.40
2018-05-02T09:42:08.844Z,19.90
2018-05-02T09:44:38.213Z,20.00
2018-05-02T09:47:05.983Z,19.90
2018-05-02T09:49:33.626Z,19.80
2018-05-02T09:52:02.071Z,18.70
2018-05-02T09:54:29.641Z,18.60
2018-05-02T09:56:57.285Z,18.70
2018-05-02T09:59:25.118Z,18.30
2018-05-02T10:01:52.982Z,18.90
2018-05-02T10:04:20.656Z,19.40
2018-05-02T10:06:48.382Z,19.20
2018-05-02T10:12:09.238Z,19.60
2018-05-02T10:14:36.893Z,19.50
2018-05-02T10:17:04.562Z,18.90
2018-05-02T10:19:32.232Z,18.80
2018-05-02T10:22:00.291Z,18.60
2018-05-02T10:24:28.172Z,18.70
2018-05-02T10:26:55.813Z,18.40
2018-05-02T10:29:23.403Z,17.70
2018-05-02T10:31:51.035Z,18.10
2018-05-02T10:34:19.262Z,18.20
2018-05-02T10:36:46.907Z,18.20
2018-05-02T10:39:14.806Z,18.20
2018-05-02T10:41:42.663Z,17.30
2018-05-02T10:44:10.280Z,17.60
2018-05-02T10:46:37.894Z,17.60
2018-05-02T10:49:05.491Z,17.50
2018-05-02T10:51:33.067Z,17.30
2018-05-02T10:54:00.675Z,17.30
2018-05-02T10:56:28.280Z,17.30
2018-05-02T10:58:55.869Z,17.40
2018-05-02T11:01:23.525Z,17.40
2018-05-02T11:03:51.311Z,17.50
2018-05-02T11:06:19.165Z,17.40
2018-05-02T11:08:46.810Z,17.60
2018-05-02T11:11:15.269Z,17.80
2018-05-02T11:13:42.962Z,17.80
2018-05-02T11:16:10.833Z,17.80
2018-05-02T11:18:38.468Z,17.80
2018-05-02T11:21:06.039Z,17.90
2018-05-02T11:23:33.704Z,17.60
2018-05-02T11:26:01.368Z,17.50
2018-05-02T11:28:29.116Z,17.50
2018-05-02T11:30:56.732Z,17.80
2018-05-02T11:33:24.432Z,17.70
2018-05-02T11:35:52.104Z,17.90
2018-05-02T11:38:19.715Z,18.00
2018-05-02T11:40:48.080Z,18.40
2018-05-02T11:43:16.495Z,18.10
2018-05-02T11:45:44.103Z,18.10
2018-05-02T11:48:11.688Z,18.30
2018-05-02T11:50:39.747Z,18.30
2018-05-02T11:53:07.502Z,18.50
2018-05-02T11:55:35.156Z,18.70
2018-05-02T11:58:02.827Z,18.90
2018-05-02T12:00:30.495Z,19.10
2018-05-02T12:02:58.271Z,19.40
2018-05-02T12:05:26.766Z,19.70
2018-05-02T12:07:56.670Z,19.90
2018-05-02T12:10:25.601Z,19.80
2018-05-02T12:12:53.971Z,20.10
2018-05-02T12:15:21.708Z,20.20
2018-05-02T12:17:50.159Z,20.20
2018-05-02T12:20:18.393Z,20.20
2018-05-02T12:22:46.012Z,19.90
2018-05-02T12:25:13.656Z,19.90
2018-05-02T12:27:41.407Z,19.90
2018-05-02T12:30:09.961Z,19.30
2018-05-02T12:32:39.462Z,19.00
2018-05-02T12:35:08.174Z,18.80
2018-05-02T12:37:36.693Z,19.00
2018-05-02T12:40:04.698Z,19.00
2018-05-02T12:42:33.196Z,19.20
2018-05-02T12:45:00.812Z,19.20
2018-05-02T12:47:28.522Z,19.30
2018-05-02T12:49:57.049Z,19.60
2018-05-02T12:52:24.845Z,19.60
2018-05-02T12:54:53.285Z,20.10
2018-05-02T12:57:20.993Z,20.10
2018-05-02T12:59:48.587Z,20.30
2018-05-02T13:02:20.111Z,20.50
2018-05-02T13:04:47.727Z,20.50
2018-05-02T13:07:15.350Z,20.60
2018-05-02T13:09:42.992Z,20.70
2018-05-02T13:12:11.450Z,20.70
2018-05-02T13:14:39.319Z,20.70
2018-05-02T13:17:06.994Z,20.70
2018-05-02T13:19:35.467Z,20.40
2018-05-02T13:22:03.160Z,20.40
2018-05-02T13:24:32.403Z,20.40
2018-05-02T13:27:00.069Z,20.40
2018-05-02T13:29:27.766Z,20.30
2018-05-02T13:31:55.412Z,20.00
2018-05-02T13:34:23.065Z,20.20
2018-05-02T13:36:50.751Z,20.10
2018-05-02T13:39:18.369Z,20.40
2018-05-02T13:41:47.004Z,20.50
2018-05-02T13:44:14.616Z,20.50
2018-05-02T13:46:42.319Z,20.60
2018-05-02T13:49:10.242Z,20.50
2018-05-02T13:51:38.609Z,20.00
2018-05-02T13:54:06.445Z,19.90
2018-05-02T13:56:34.800Z,20.30
2018-05-02T13:59:02.579Z,20.30
2018-05-02T14:01:31.253Z,20.30
2018-05-02T14:03:59.011Z,20.20
2018-05-02T14:06:26.938Z,20.30
2018-05-02T14:08:54.657Z,20.20
2018-05-02T14:11:22.359Z,20.20
2018-05-02T14:13:51.323Z,20.40
2018-05-02T14:16:18.903Z,20.40
2018-05-02T14:18:46.475Z,20.50
2018-05-02T14:21:14.195Z,20.00
2018-05-02T14:23:41.954Z,19.90
2018-05-02T14:26:09.628Z,20.10
2018-05-02T14:28:37.269Z,20.10
2018-05-02T14:31:04.821Z,20.20
2018-05-02T14:33:32.402Z,20.40
2018-05-02T14:36:00.279Z,20.50
2018-05-02T14:38:28.128Z,20.50
2018-05-02T14:40:56.535Z,20.40
2018-05-02T14:43:24.160Z,20.40
2018-05-02T14:45:51.854Z,20.30
2018-05-02T14:48:19.597Z,20.20
2018-05-02T14:50:47.173Z,20.50
2018-05-02T14:53:14.769Z,20.60
2018-05-02T14:55:42.639Z,20.70
2018-05-02T14:58:11.200Z,20.80
2018-05-02T15:00:39.585Z,20.90
2018-05-02T15:03:07.265Z,20.90
2018-05-02T15:05:35.040Z,20.90
2018-05-02T15:08:03.209Z,21.00
2018-05-02T15:10:31.681Z,21.00
2018-05-02T15:12:59.405Z,21.00
2018-05-02T15:15:28.231Z,21.10
2018-05-02T15:17:56.585Z,21.00
2018-05-02T15:20:25.258Z,21.10
2018-05-02T15:22:52.903Z,21.10
2018-05-02T15:25:20.991Z,21.00
2018-05-02T15:27:49.114Z,21.00
2018-05-02T15:30:17.165Z,20.80
2018-05-02T15:32:45.592Z,20.80
2018-05-02T15:35:13.484Z,20.80
2018-05-02T15:37:42.077Z,20.90
2018-05-02T15:40:09.709Z,20.90
2018-05-02T15:42:37.334Z,21.00
2018-05-02T15:45:05.062Z,21.00
2018-05-02T15:47:33.803Z,21.00
2018-05-02T15:50:01.529Z,21.00
2018-05-02T15:52:29.947Z,20.90
2018-05-02T15:54:57.608Z,20.90
2018-05-02T15:57:25.309Z,20.80
2018-05-02T15:59:52.989Z,20.80
2018-05-02T16:02:30.317Z,20.90
2018-05-02T16:05:01.748Z,20.80
2018-05-02T16:07:31.121Z,20.80
2018-05-02T16:09:58.799Z,20.80
2018-05-02T16:12:31.274Z,20.90
2018-05-02T16:15:02.839Z,20.80
2018-05-02T16:17:31.413Z,20.60
2018-05-02T16:20:01.430Z,20.70
2018-05-02T16:22:29.851Z,20.80
2018-05-02T16:24:57.481Z,20.80
2018-05-02T16:27:25.175Z,20.80
2018-05-02T16:29:53.349Z,20.80
2018-05-02T16:32:21.070Z,20.70
2018-05-02T16:34:51.066Z,20.60
2018-05-02T16:37:18.774Z,20.70
2018-05-02T16:39:46.418Z,20.60
2018-05-02T16:42:14.777Z,20.70
2018-05-02T16:44:43.111Z,20.60
2018-05-02T16:47:11.109Z,20.60
2018-05-02T16:49:38.948Z,20.60
2018-05-02T16:52:06.557Z,20.50
2018-05-02T16:54:35.202Z,20.40
2018-05-02T16:57:02.754Z,20.40
2018-05-02T16:59:30.448Z,20.40
2018-05-02T17:01:58.091Z,20.30
2018-05-02T17:04:25.717Z,20.30
2018-05-02T17:06:53.343Z,20.20
2018-05-02T17:09:21.037Z,20.30
2018-05-02T17:11:48.755Z,20.20
2018-05-02T17:14:17.350Z,20.10
2018-05-02T17:16:45.028Z,19.90
2018-05-02T17:19:13.501Z,19.70
2018-05-02T17:21:41.160Z,19.70
2018-05-02T17:24:09.136Z,19.70
2018-05-02T17:26:37.535Z,19.70
2018-05-02T17:29:05.150Z,19.60
2018-05-02T17:31:32.792Z,19.70
2018-05-02T17:34:06.195Z,19.60
2018-05-02T17:36:33.739Z,19.60
2018-05-02T17:39:01.421Z,19.60
2018-05-02T17:41:29.046Z,19.60
2018-05-02T17:43:56.666Z,19.50
2018-05-02T17:46:24.353Z,19.50
2018-05-02T17:48:52.732Z,19.40
2018-05-02T17:51:20.469Z,19.30
2018-05-02T17:53:48.135Z,19.10
2018-05-02T17:56:15.801Z,19.00
2018-05-02T17:58:44.156Z,19.00
2018-05-02T18:01:11.985Z,19.00
2018-05-02T18:03:39.696Z,19.00
2018-05-02T18:06:07.291Z,19.00
2018-05-02T18:08:35.937Z,18.90
2018-05-02T18:11:03.594Z,18.90
2018-05-02T18:13:31.449Z,18.90
2018-05-02T18:15:59.124Z,18.80
2018-05-02T18:18:26.796Z,18.80
2018-05-02T18:20:54.417Z,18.60
2018-05-02T18:23:23.242Z,18.60
2018-05-02T18:25:50.872Z,18.60
2018-05-02T18:28:18.592Z,18.50
2018-05-02T18:30:46.335Z,18.50
2018-05-02T18:33:13.976Z,18.40
2018-05-02T18:35:41.568Z,18.30
2018-05-02T18:38:09.211Z,18.30
2018-05-02T18:40:36.886Z,18.30
2018-05-02T18:43:04.549Z,18.20
2018-05-02T18:45:32.205Z,18.10
2018-05-02T18:47:59.752Z,18.10
2018-05-02T18:50:27.409Z,18.10
2018-05-02T18:52:55.308Z,18.00
2018-05-02T18:55:22.882Z,18.00
2018-05-02T18:57:51.421Z,18.00
2018-05-02T19:00:19.109Z,18.00
2018-05-02T19:02:46.682Z,17.90
2018-05-02T19:05:14.328Z,17.80
2018-05-02T19:07:42.197Z,17.80
2018-05-02T19:10:10.048Z,17.80
2018-05-02T19:12:37.706Z,17.80
2018-05-02T19:15:05.780Z,17.70
2018-05-02T19:17:33.420Z,17.70
2018-05-02T19:20:06.731Z,17.60
2018-05-02T19:22:34.318Z,17.60
2018-05-02T19:25:07.495Z,17.50
2018-05-02T19:27:35.177Z,17.50
2018-05-02T19:30:02.831Z,17.50
2018-05-02T19:32:36.030Z,17.50
2018-05-02T19:35:03.941Z,17.40
2018-05-02T19:37:31.709Z,17.40
2018-05-02T19:40:04.959Z,17.40
2018-05-02T19:42:38.283Z,17.30
2018-05-02T19:45:06.470Z,17.20
2018-05-02T19:47:34.057Z,17.20
2018-05-02T19:50:01.741Z,17.20
2018-05-02T19:52:34.965Z,17.10
2018-05-02T19:55:03.281Z,17.00
2018-05-02T19:57:30.997Z,17.00
2018-05-02T19:59:58.709Z,17.00
2018-05-02T20:02:31.813Z,17.00
2018-05-02T20:04:59.426Z,16.90
2018-05-02T20:07:32.759Z,16.80
2018-05-02T20:10:05.986Z,16.70
2018-05-02T20:12:39.378Z,16.70
2018-05-02T20:15:06.985Z,16.80
2018-05-02T20:17:34.583Z,16.70
2018-05-02T20:20:02.286Z,16.70
2018-05-02T20:22:30.643Z,16.60
2018-05-02T20:24:58.241Z,16.60
2018-05-02T20:27:25.828Z,16.80
2018-05-02T20:29:53.508Z,16.80
2018-05-02T20:32:21.126Z,16.80
2018-05-02T20:34:48.721Z,16.80
2018-05-02T20:37:16.349Z,16.70
2018-05-02T20:39:43.932Z,16.90
2018-05-02T20:42:11.691Z,16.80
2018-05-02T20:44:39.303Z,16.90
2018-05-02T20:47:06.922Z,16.90
2018-05-02T20:49:34.478Z,16.90
2018-05-02T20:52:02.161Z,16.90
2018-05-02T20:54:29.850Z,16.90
2018-05-02T20:56:57.391Z,16.90
2018-05-02T20:59:25.105Z,16.90
2018-05-02T21:01:52.697Z,17.00
2018-05-02T21:04:20.403Z,16.90
2018-05-02T21:06:47.982Z,16.90
2018-05-02T21:09:15.715Z,16.90
2018-05-02T21:11:43.273Z,16.90
2018-05-02T21:14:10.940Z,16.90
2018-05-02T21:16:38.579Z,16.90
2018-05-02T21:19:06.182Z,16.80
2018-05-02T21:21:33.775Z,16.80
2018-05-02T21:24:01.349Z,16.70
2018-05-02T21:26:28.971Z,16.60
2018-05-02T21:28:56.561Z,16.60
2018-05-02T21:31:24.276Z,16.50
2018-05-02T21:33:51.912Z,16.40
2018-05-02T21:36:19.591Z,16.30
2018-05-02T21:38:47.244Z,16.20
2018-05-02T21:41:14.880Z,16.20
2018-05-02T21:43:43.001Z,16.10
2018-05-02T21:46:10.678Z,16.20
2018-05-02T21:48:38.303Z,16.00
2018-05-02T21:51:06.758Z,15.90
2018-05-02T21:53:34.475Z,15.90
2018-05-02T21:56:02.327Z,16.00
2018-05-02T21:58:30.885Z,15.90
2018-05-02T22:00:58.577Z,15.90
2018-05-02T22:03:27.020Z,15.70
2018-05-02T22:05:54.685Z,15.70
2018-05-02T22:08:22.342Z,15.60
2018-05-02T22:10:50.230Z,15.60
2018-05-02T22:13:17.843Z,15.60
2018-05-02T22:15:45.434Z,15.50
2018-05-02T22:18:13.234Z,15.40
2018-05-02T22:20:40.836Z,15.50
2018-05-02T22:23:08.423Z,15.40
2018-05-02T22:25:35.985Z,15.50
2018-05-02T22:28:04.016Z,15.40
2018-05-02T22:30:31.624Z,15.40
2018-05-02T22:32:59.226Z,15.40
2018-05-02T22:35:26.857Z,15.40
2018-05-02T22:37:54.463Z,15.50
2018-05-02T22:40:22.092Z,15.50
2018-05-02T22:42:49.671Z,15.50
2018-05-02T22:45:17.299Z,15.50
2018-05-02T22:47:44.888Z,15.50
2018-05-02T22:50:12.443Z,15.60
2018-05-02T22:52:40.134Z,15.60
2018-05-02T22:55:07.788Z,15.70
2018-05-02T22:57:35.377Z,15.70
2018-05-02T23:00:02.950Z,15.70
2018-05-02T23:02:30.626Z,15.70
2018-05-02T23:04:58.178Z,15.70
2018-05-02T23:07:26.869Z,15.60
2018-05-02T23:09:54.459Z,15.60
2018-05-02T23:12:22.840Z,15.70
2018-05-02T23:14:51.334Z,15.80
2018-05-02T23:17:18.881Z,15.80
2018-05-02T23:19:46.524Z,15.80
2018-05-02T23:22:14.942Z,15.70
2018-05-02T23:24:42.509Z,15.70
2018-05-02T23:27:10.163Z,15.70
2018-05-02T23:29:37.848Z,15.70
2018-05-02T23:32:05.589Z,15.60
2018-05-02T23:34:33.287Z,15.50
2018-05-02T23:37:00.902Z,15.50
2018-05-02T23:39:28.601Z,15.50
2018-05-02T23:41:56.150Z,15.50
2018-05-02T23:44:23.820Z,15.40
2018-05-02T23:46:51.503Z,15.40
2018-05-02T23:49:19.317Z,15.50
2018-05-02T23:51:46.925Z,15.40
2018-05-02T23:54:14.590Z,15.40
2018-05-02T23:56:42.237Z,15.50
2018-05-02T23:59:09.939Z,15.20
